sensor_id;sensor_type;location;lat;lon;timestamp;P1;durP1;ratioP1;P2;durP2;ratioP2
70150;SDS011;57517;43.562;19.540;2022-09-16T04:31:16;9.30;;;4.05;;
70150;SDS011;57517;43.562;19.540;2022-09-16T04:33:42;6.97;;;4.07;;
70150;SDS011;57517;43.562;19.540;2022-09-16T04:38:39;8.63;;;5.38;;
70150;SDS011;57517;43.562;19.540;2022-09-16T04:41:16;8.15;;;4.75;;
70150;SDS011;57517;43.562;19.540;2022-09-16T04:43:43;7.80;;;3.75;;
70150;SDS011;57517;43.562;19.540;2022-09-16T04:46:09;13.98;;;6.68;;
70150;SDS011;57517;43.562;19.540;2022-09-16T04:48:35;8.63;;;6.53;;
70150;SDS011;57517;43.562;19.540;2022-09-16T04:51:02;11.63;;;5.18;;
70150;SDS011;57517;43.562;19.540;2022-09-16T04:53:30;7.15;;;4.47;;
70150;SDS011;57517;43.562;19.540;2022-09-16T04:56:04;10.43;;;4.70;;
70150;SDS011;57517;43.562;19.540;2022-09-16T04:58:39;8.48;;;5.28;;
70150;SDS011;57517;43.562;19.540;2022-09-16T05:01:07;10.25;;;5.70;;
70150;SDS011;57517;43.562;19.540;2022-09-16T05:03:37;9.60;;;5.05;;
70150;SDS011;57517;43.562;19.540;2022-09-16T05:06:08;12.48;;;5.82;;
70150;SDS011;57517;43.562;19.540;2022-09-16T05:08:36;7.85;;;4.78;;
70150;SDS011;57517;43.562;19.540;2022-09-16T05:11:03;13.02;;;4.90;;
70150;SDS011;57517;43.562;19.540;2022-09-16T05:13:30;10.18;;;4.82;;
70150;SDS011;57517;43.562;19.540;2022-09-16T05:15:59;9.45;;;4.35;;
70150;SDS011;57517;43.562;19.540;2022-09-16T05:18:27;9.82;;;5.13;;
70150;SDS011;57517;43.562;19.540;2022-09-16T05:20:56;9.77;;;4.90;;
70150;SDS011;57517;43.562;19.540;2022-09-16T05:23:26;9.70;;;5.38;;
70150;SDS011;57517;43.562;19.540;2022-09-16T05:25:52;11.15;;;5.38;;
70150;SDS011;57517;43.562;19.540;2022-09-16T05:28:18;7.90;;;4.85;;
70150;SDS011;57517;43.562;19.540;2022-09-16T05:30:44;11.10;;;5.53;;
70150;SDS011;57517;43.562;19.540;2022-09-16T05:33:10;11.90;;;5.20;;
70150;SDS011;57517;43.562;19.540;2022-09-16T05:35:36;8.82;;;5.10;;
70150;SDS011;57517;43.562;19.540;2022-09-16T05:38:02;9.45;;;5.65;;
70150;SDS011;57517;43.562;19.540;2022-09-16T05:40:27;9.82;;;6.45;;
70150;SDS011;57517;43.562;19.540;2022-09-16T05:42:53;12.88;;;5.50;;
70150;SDS011;57517;43.562;19.540;2022-09-16T05:45:19;11.85;;;6.72;;
70150;SDS011;57517;43.562;19.540;2022-09-16T05:47:48;10.00;;;6.40;;
70150;SDS011;57517;43.562;19.540;2022-09-16T05:50:15;12.88;;;8.20;;
70150;SDS011;57517;43.562;19.540;2022-09-16T05:52:41;13.63;;;7.35;;
70150;SDS011;57517;43.562;19.540;2022-09-16T05:55:07;10.05;;;6.60;;
70150;SDS011;57517;43.562;19.540;2022-09-16T05:57:33;13.52;;;5.70;;
70150;SDS011;57517;43.562;19.540;2022-09-16T05:59:59;13.60;;;5.90;;
70150;SDS011;57517;43.562;19.540;2022-09-16T06:02:25;11.13;;;6.28;;
70150;SDS011;57517;43.562;19.540;2022-09-16T06:04:50;12.18;;;6.38;;
70150;SDS011;57517;43.562;19.540;2022-09-16T06:07:17;9.85;;;5.93;;
70150;SDS011;57517;43.562;19.540;2022-09-16T06:09:43;9.82;;;5.40;;
70150;SDS011;57517;43.562;19.540;2022-09-16T06:12:09;10.82;;;5.30;;
70150;SDS011;57517;43.562;19.540;2022-09-16T06:14:35;10.45;;;6.97;;
70150;SDS011;57517;43.562;19.540;2022-09-16T06:17:01;11.88;;;7.10;;
70150;SDS011;57517;43.562;19.540;2022-09-16T06:19:27;10.48;;;6.90;;
70150;SDS011;57517;43.562;19.540;2022-09-16T06:21:53;11.95;;;6.93;;
70150;SDS011;57517;43.562;19.540;2022-09-16T06:24:19;12.75;;;7.68;;
70150;SDS011;57517;43.562;19.540;2022-09-16T06:26:46;14.68;;;7.50;;
70150;SDS011;57517;43.562;19.540;2022-09-16T06:29:13;9.40;;;6.63;;
70150;SDS011;57517;43.562;19.540;2022-09-16T06:31:40;9.13;;;6.03;;
70150;SDS011;57517;43.562;19.540;2022-09-16T06:34:06;11.38;;;6.28;;
70150;SDS011;57517;43.562;19.540;2022-09-16T06:36:37;9.45;;;5.38;;
70150;SDS011;57517;43.562;19.540;2022-09-16T06:39:03;13.60;;;6.07;;
70150;SDS011;57517;43.562;19.540;2022-09-16T06:41:33;16.05;;;9.00;;
70150;SDS011;57517;43.562;19.540;2022-09-16T06:43:58;16.17;;;11.60;;
70150;SDS011;57517;43.562;19.540;2022-09-16T06:46:26;13.93;;;8.38;;
70150;SDS011;57517;43.562;19.540;2022-09-16T06:48:54;10.63;;;6.50;;
70150;SDS011;57517;43.562;19.540;2022-09-16T06:51:22;13.13;;;7.32;;
70150;SDS011;57517;43.562;19.540;2022-09-16T06:53:50;11.90;;;7.30;;
70150;SDS011;57517;43.562;19.540;2022-09-16T06:56:18;9.57;;;6.97;;
70150;SDS011;57517;43.562;19.540;2022-09-16T06:58:45;9.48;;;5.75;;
70150;SDS011;57517;43.562;19.540;2022-09-16T07:01:16;7.63;;;4.97;;
70150;SDS011;57517;43.562;19.540;2022-09-16T07:03:44;10.20;;;5.30;;
70150;SDS011;57517;43.562;19.540;2022-09-16T07:06:12;8.15;;;5.20;;
70150;SDS011;57517;43.562;19.540;2022-09-16T07:08:39;12.85;;;6.10;;
70150;SDS011;57517;43.562;19.540;2022-09-16T07:11:12;8.45;;;5.45;;
70150;SDS011;57517;43.562;19.540;2022-09-16T07:13:43;7.80;;;5.15;;
70150;SDS011;57517;43.562;19.540;2022-09-16T07:16:12;9.30;;;5.18;;
70150;SDS011;57517;43.562;19.540;2022-09-16T07:18:40;8.65;;;4.82;;
70150;SDS011;57517;43.562;19.540;2022-09-16T07:21:08;10.02;;;7.38;;
70150;SDS011;57517;43.562;19.540;2022-09-16T07:23:39;8.27;;;6.07;;
70150;SDS011;57517;43.562;19.540;2022-09-16T07:26:09;8.80;;;5.82;;
70150;SDS011;57517;43.562;19.540;2022-09-16T07:28:38;10.50;;;6.40;;
70150;SDS011;57517;43.562;19.540;2022-09-16T07:31:06;14.30;;;7.70;;
70150;SDS011;57517;43.562;19.540;2022-09-16T07:33:34;6.82;;;4.30;;
70150;SDS011;57517;43.562;19.540;2022-09-16T07:36:02;12.20;;;6.40;;
70150;SDS011;57517;43.562;19.540;2022-09-16T07:38:29;8.20;;;5.40;;
70150;SDS011;57517;43.562;19.540;2022-09-16T07:41:02;9.93;;;4.97;;
70150;SDS011;57517;43.562;19.540;2022-09-16T07:43:30;12.63;;;9.40;;
70150;SDS011;57517;43.562;19.540;2022-09-16T07:45:56;10.13;;;6.05;;
70150;SDS011;57517;43.562;19.540;2022-09-16T07:48:22;12.95;;;10.10;;
70150;SDS011;57517;43.562;19.540;2022-09-16T07:50:55;9.25;;;6.05;;
70150;SDS011;57517;43.562;19.540;2022-09-16T07:53:22;8.95;;;5.20;;
70150;SDS011;57517;43.562;19.540;2022-09-16T07:55:51;9.45;;;4.88;;
70150;SDS011;57517;43.562;19.540;2022-09-16T07:58:18;8.77;;;5.10;;
70150;SDS011;57517;43.562;19.540;2022-09-16T08:00:44;10.48;;;5.82;;
70150;SDS011;57517;43.562;19.540;2022-09-16T08:03:12;9.00;;;6.55;;
70150;SDS011;57517;43.562;19.540;2022-09-16T08:05:38;20.38;;;17.38;;
70150;SDS011;57517;43.562;19.540;2022-09-16T08:08:03;10.95;;;7.38;;
70150;SDS011;57517;43.562;19.540;2022-09-16T08:10:29;9.80;;;5.50;;
70150;SDS011;57517;43.562;19.540;2022-09-16T08:12:55;7.00;;;5.60;;
70150;SDS011;57517;43.562;19.540;2022-09-16T08:15:21;12.48;;;6.95;;
70150;SDS011;57517;43.562;19.540;2022-09-16T08:17:47;10.25;;;5.82;;
70150;SDS011;57517;43.562;19.540;2022-09-16T08:20:13;9.15;;;5.80;;
70150;SDS011;57517;43.562;19.540;2022-09-16T08:22:38;10.82;;;6.93;;
70150;SDS011;57517;43.562;19.540;2022-09-16T08:25:04;9.32;;;5.00;;
70150;SDS011;57517;43.562;19.540;2022-09-16T08:27:33;11.18;;;5.03;;
70150;SDS011;57517;43.562;19.540;2022-09-16T08:29:59;8.25;;;5.10;;
70150;SDS011;57517;43.562;19.540;2022-09-16T08:32:25;10.70;;;5.72;;
70150;SDS011;57517;43.562;19.540;2022-09-16T08:34:51;10.40;;;5.93;;
70150;SDS011;57517;43.562;19.540;2022-09-16T08:37:17;13.40;;;9.30;;
70150;SDS011;57517;43.562;19.540;2022-09-16T08:39:43;8.32;;;5.18;;
70150;SDS011;57517;43.562;19.540;2022-09-16T08:47:38;10.05;;;4.90;;
70150;SDS011;57517;43.562;19.540;2022-09-16T08:50:52;8.27;;;4.78;;
70150;SDS011;57517;43.562;19.540;2022-09-16T08:53:21;7.55;;;4.60;;
70150;SDS011;57517;43.562;19.540;2022-09-16T08:56:12;8.90;;;4.80;;
70150;SDS011;57517;43.562;19.540;2022-09-16T08:58:46;8.00;;;4.72;;
70150;SDS011;57517;43.562;19.540;2022-09-16T09:01:35;8.80;;;5.18;;
70150;SDS011;57517;43.562;19.540;2022-09-16T09:04:06;8.52;;;5.10;;
70150;SDS011;57517;43.562;19.540;2022-09-16T09:06:38;8.95;;;4.85;;
70150;SDS011;57517;43.562;19.540;2022-09-16T09:28:17;16.38;;;10.32;;
70150;SDS011;57517;43.562;19.540;2022-09-16T09:31:17;18.95;;;13.57;;
70150;SDS011;57517;43.562;19.540;2022-09-16T09:42:35;9.60;;;5.35;;
70150;SDS011;57517;43.562;19.540;2022-09-16T09:47:42;10.82;;;5.20;;
70150;SDS011;57517;43.562;19.540;2022-09-16T09:50:17;8.85;;;4.65;;
70150;SDS011;57517;43.562;19.540;2022-09-16T09:55:50;10.45;;;4.78;;
70150;SDS011;57517;43.562;19.540;2022-09-16T09:58:29;10.38;;;4.28;;
70150;SDS011;57517;43.562;19.540;2022-09-16T10:01:05;10.73;;;4.50;;
70150;SDS011;57517;43.562;19.540;2022-09-16T10:03:32;8.10;;;4.28;;
70150;SDS011;57517;43.562;19.540;2022-09-16T10:05:58;8.88;;;4.68;;
70150;SDS011;57517;43.562;19.540;2022-09-16T10:10:53;11.00;;;5.03;;
70150;SDS011;57517;43.562;19.540;2022-09-16T10:13:22;6.65;;;4.47;;
70150;SDS011;57517;43.562;19.540;2022-09-16T10:15:52;12.88;;;8.30;;
70150;SDS011;57517;43.562;19.540;2022-09-16T10:18:26;11.30;;;5.53;;
70150;SDS011;57517;43.562;19.540;2022-09-16T10:23:28;8.20;;;4.60;;
70150;SDS011;57517;43.562;19.540;2022-09-16T10:26:04;7.63;;;4.18;;
70150;SDS011;57517;43.562;19.540;2022-09-16T10:29:00;9.20;;;4.05;;
70150;SDS011;57517;43.562;19.540;2022-09-16T10:31:39;8.65;;;4.93;;
70150;SDS011;57517;43.562;19.540;2022-09-16T10:34:29;9.95;;;4.72;;
70150;SDS011;57517;43.562;19.540;2022-09-16T10:37:04;8.13;;;4.75;;
70150;SDS011;57517;43.562;19.540;2022-09-16T10:39:38;6.40;;;4.32;;
70150;SDS011;57517;43.562;19.540;2022-09-16T10:42:20;9.40;;;5.40;;
70150;SDS011;57517;43.562;19.540;2022-09-16T10:44:51;8.18;;;4.93;;
70150;SDS011;57517;43.562;19.540;2022-09-16T10:47:27;10.25;;;5.40;;
70150;SDS011;57517;43.562;19.540;2022-09-16T10:49:59;10.38;;;6.07;;
70150;SDS011;57517;43.562;19.540;2022-09-16T10:54:56;10.38;;;5.53;;
70150;SDS011;57517;43.562;19.540;2022-09-16T10:57:33;10.50;;;5.60;;
70150;SDS011;57517;43.562;19.540;2022-09-16T11:08:40;12.32;;;5.97;;
70150;SDS011;57517;43.562;19.540;2022-09-16T11:11:21;11.35;;;6.07;;
70150;SDS011;57517;43.562;19.540;2022-09-16T11:22:24;15.25;;;5.45;;
70150;SDS011;57517;43.562;19.540;2022-09-16T11:30:58;11.55;;;5.82;;
70150;SDS011;57517;43.562;19.540;2022-09-16T11:33:34;10.07;;;5.68;;
70150;SDS011;57517;43.562;19.540;2022-09-16T11:52:08;8.40;;;3.20;;
70150;SDS011;57517;43.562;19.540;2022-09-16T11:57:38;7.15;;;3.70;;
70150;SDS011;57517;43.562;19.540;2022-09-16T12:00:12;10.60;;;4.80;;
70150;SDS011;57517;43.562;19.540;2022-09-16T12:05:35;8.70;;;4.95;;
70150;SDS011;57517;43.562;19.540;2022-09-16T12:08:18;8.00;;;4.80;;
70150;SDS011;57517;43.562;19.540;2022-09-16T12:10:52;9.38;;;4.75;;
70150;SDS011;57517;43.562;19.540;2022-09-16T12:13:35;9.60;;;3.78;;
70150;SDS011;57517;43.562;19.540;2022-09-16T12:16:07;6.85;;;2.60;;
70150;SDS011;57517;43.562;19.540;2022-09-16T12:18:47;5.55;;;2.58;;
70150;SDS011;57517;43.562;19.540;2022-09-16T12:21:23;8.98;;;3.40;;
70150;SDS011;57517;43.562;19.540;2022-09-16T12:24:19;5.90;;;4.28;;
70150;SDS011;57517;43.562;19.540;2022-09-16T12:27:06;7.10;;;3.97;;
70150;SDS011;57517;43.562;19.540;2022-09-16T12:29:47;4.35;;;2.88;;
70150;SDS011;57517;43.562;19.540;2022-09-16T12:32:33;5.03;;;2.60;;
70150;SDS011;57517;43.562;19.540;2022-09-16T12:35:14;5.57;;;2.60;;
70150;SDS011;57517;43.562;19.540;2022-09-16T12:37:46;5.95;;;2.20;;
70150;SDS011;57517;43.562;19.540;2022-09-16T12:40:21;4.30;;;2.40;;
70150;SDS011;57517;43.562;19.540;2022-09-16T12:43:00;3.55;;;1.70;;
70150;SDS011;57517;43.562;19.540;2022-09-16T12:54:16;4.13;;;1.85;;
70150;SDS011;57517;43.562;19.540;2022-09-16T12:57:34;3.45;;;1.60;;
70150;SDS011;57517;43.562;19.540;2022-09-16T13:02:41;4.22;;;1.83;;
70150;SDS011;57517;43.562;19.540;2022-09-16T13:05:34;6.77;;;2.00;;
70150;SDS011;57517;43.562;19.540;2022-09-16T13:08:05;4.25;;;1.83;;
70150;SDS011;57517;43.562;19.540;2022-09-16T13:10:43;7.50;;;1.98;;
70150;SDS011;57517;43.562;19.540;2022-09-16T13:13:14;5.18;;;2.30;;
70150;SDS011;57517;43.562;19.540;2022-09-16T13:15:53;4.57;;;1.80;;
70150;SDS011;57517;43.562;19.540;2022-09-16T13:18:24;4.43;;;1.85;;
70150;SDS011;57517;43.562;19.540;2022-09-16T13:21:16;5.03;;;2.55;;
70150;SDS011;57517;43.562;19.540;2022-09-16T13:23:47;6.47;;;2.47;;
70150;SDS011;57517;43.562;19.540;2022-09-16T13:26:17;5.50;;;1.80;;
70150;SDS011;57517;43.562;19.540;2022-09-16T13:28:44;4.85;;;1.92;;
70150;SDS011;57517;43.562;19.540;2022-09-16T13:33:42;5.03;;;2.10;;
70150;SDS011;57517;43.562;19.540;2022-09-16T13:38:45;3.85;;;1.65;;
70150;SDS011;57517;43.562;19.540;2022-09-16T13:41:14;3.15;;;1.40;;
70150;SDS011;57517;43.562;19.540;2022-09-16T13:44:00;3.17;;;1.38;;
70150;SDS011;57517;43.562;19.540;2022-09-16T13:46:46;5.18;;;1.77;;
70150;SDS011;57517;43.562;19.540;2022-09-16T13:49:21;6.22;;;1.55;;
70150;SDS011;57517;43.562;19.540;2022-09-16T13:51:50;4.40;;;1.75;;
70150;SDS011;57517;43.562;19.540;2022-09-16T13:54:26;5.55;;;1.90;;
70150;SDS011;57517;43.562;19.540;2022-09-16T13:59:44;2.83;;;1.30;;
70150;SDS011;57517;43.562;19.540;2022-09-16T14:13:21;3.50;;;1.48;;
70150;SDS011;57517;43.562;19.540;2022-09-16T14:18:21;2.53;;;1.40;;
70150;SDS011;57517;43.562;19.540;2022-09-16T14:20:51;3.97;;;1.55;;
70150;SDS011;57517;43.562;19.540;2022-09-16T14:23:24;4.22;;;1.30;;
70150;SDS011;57517;43.562;19.540;2022-09-16T14:26:08;4.68;;;1.77;;
70150;SDS011;57517;43.562;19.540;2022-09-16T14:28:40;3.40;;;1.58;;
70150;SDS011;57517;43.562;19.540;2022-09-16T14:31:07;3.63;;;1.30;;
70150;SDS011;57517;43.562;19.540;2022-09-16T14:33:39;2.88;;;1.48;;
70150;SDS011;57517;43.562;19.540;2022-09-16T14:36:09;4.13;;;2.03;;
70150;SDS011;57517;43.562;19.540;2022-09-16T14:38:46;4.70;;;1.70;;
70150;SDS011;57517;43.562;19.540;2022-09-16T14:41:37;3.92;;;1.35;;
70150;SDS011;57517;43.562;19.540;2022-09-16T14:46:48;4.97;;;2.35;;
70150;SDS011;57517;43.562;19.540;2022-09-16T14:49:26;5.82;;;1.90;;
70150;SDS011;57517;43.562;19.540;2022-09-16T14:51:57;5.30;;;2.40;;
70150;SDS011;57517;43.562;19.540;2022-09-16T14:54:28;6.13;;;1.85;;
70150;SDS011;57517;43.562;19.540;2022-09-16T14:56:56;3.42;;;1.52;;
70150;SDS011;57517;43.562;19.540;2022-09-16T14:59:27;13.10;;;1.98;;
70150;SDS011;57517;43.562;19.540;2022-09-16T15:04:42;4.03;;;1.80;;
70150;SDS011;57517;43.562;19.540;2022-09-16T15:07:16;6.28;;;1.83;;
70150;SDS011;57517;43.562;19.540;2022-09-16T15:10:00;4.53;;;2.10;;
70150;SDS011;57517;43.562;19.540;2022-09-16T15:12:31;4.25;;;1.75;;
70150;SDS011;57517;43.562;19.540;2022-09-16T15:15:22;4.50;;;1.60;;
70150;SDS011;57517;43.562;19.540;2022-09-16T15:17:54;4.07;;;2.00;;
70150;SDS011;57517;43.562;19.540;2022-09-16T15:20:24;3.17;;;1.60;;
70150;SDS011;57517;43.562;19.540;2022-09-16T15:22:52;5.03;;;2.17;;
70150;SDS011;57517;43.562;19.540;2022-09-16T15:25:19;3.42;;;1.67;;
70150;SDS011;57517;43.562;19.540;2022-09-16T15:27:47;4.43;;;1.80;;
70150;SDS011;57517;43.562;19.540;2022-09-16T15:30:21;6.90;;;2.50;;
70150;SDS011;57517;43.562;19.540;2022-09-16T15:32:48;4.22;;;1.90;;
70150;SDS011;57517;43.562;19.540;2022-09-16T15:37:47;4.93;;;2.13;;
70150;SDS011;57517;43.562;19.540;2022-09-16T15:45:36;6.70;;;2.45;;
70150;SDS011;57517;43.562;19.540;2022-09-16T15:48:18;6.63;;;2.33;;
70150;SDS011;57517;43.562;19.540;2022-09-16T15:50:50;5.03;;;2.42;;
70150;SDS011;57517;43.562;19.540;2022-09-16T15:55:59;11.32;;;5.10;;
70150;SDS011;57517;43.562;19.540;2022-09-16T15:58:53;7.40;;;4.90;;
70150;SDS011;57517;43.562;19.540;2022-09-16T16:04:01;6.18;;;3.15;;
70150;SDS011;57517;43.562;19.540;2022-09-16T16:06:45;5.40;;;2.70;;
70150;SDS011;57517;43.562;19.540;2022-09-16T16:11:59;11.40;;;3.25;;
70150;SDS011;57517;43.562;19.540;2022-09-16T16:14:37;6.30;;;2.72;;
70150;SDS011;57517;43.562;19.540;2022-09-16T16:17:05;5.60;;;2.45;;
70150;SDS011;57517;43.562;19.540;2022-09-16T16:19:33;8.32;;;2.38;;
70150;SDS011;57517;43.562;19.540;2022-09-16T16:21:59;6.32;;;2.42;;
70150;SDS011;57517;43.562;19.540;2022-09-16T16:24:26;8.85;;;3.63;;
70150;SDS011;57517;43.562;19.540;2022-09-16T16:26:53;9.93;;;3.13;;
70150;SDS011;57517;43.562;19.540;2022-09-16T16:29:19;7.43;;;3.13;;
70150;SDS011;57517;43.562;19.540;2022-09-16T16:31:58;5.00;;;2.78;;
70150;SDS011;57517;43.562;19.540;2022-09-16T16:34:25;3.83;;;2.30;;
70150;SDS011;57517;43.562;19.540;2022-09-16T16:36:50;5.80;;;2.50;;
70150;SDS011;57517;43.562;19.540;2022-09-16T16:39:16;9.85;;;3.72;;
70150;SDS011;57517;43.562;19.540;2022-09-16T16:41:42;8.18;;;3.55;;
70150;SDS011;57517;43.562;19.540;2022-09-16T16:44:08;5.22;;;3.40;;
70150;SDS011;57517;43.562;19.540;2022-09-16T16:46:34;10.30;;;4.47;;
70150;SDS011;57517;43.562;19.540;2022-09-16T16:48:59;8.45;;;4.38;;
70150;SDS011;57517;43.562;19.540;2022-09-16T16:51:25;6.78;;;3.67;;
70150;SDS011;57517;43.562;19.540;2022-09-16T16:53:51;10.45;;;3.60;;
70150;SDS011;57517;43.562;19.540;2022-09-16T16:56:17;8.90;;;4.15;;
70150;SDS011;57517;43.562;19.540;2022-09-16T16:58:43;7.93;;;3.78;;
70150;SDS011;57517;43.562;19.540;2022-09-16T17:01:09;9.15;;;4.05;;
70150;SDS011;57517;43.562;19.540;2022-09-16T17:03:44;9.27;;;3.92;;
70150;SDS011;57517;43.562;19.540;2022-09-16T17:06:12;8.65;;;3.65;;
70150;SDS011;57517;43.562;19.540;2022-09-16T17:08:38;9.27;;;3.25;;
70150;SDS011;57517;43.562;19.540;2022-09-16T17:13:38;12.13;;;5.57;;
70150;SDS011;57517;43.562;19.540;2022-09-16T17:16:05;9.35;;;4.47;;
70150;SDS011;57517;43.562;19.540;2022-09-16T17:18:33;10.25;;;4.97;;
70150;SDS011;57517;43.562;19.540;2022-09-16T17:21:03;8.70;;;5.95;;
70150;SDS011;57517;43.562;19.540;2022-09-16T17:23:31;14.55;;;8.40;;
70150;SDS011;57517;43.562;19.540;2022-09-16T17:25:57;16.60;;;7.45;;
70150;SDS011;57517;43.562;19.540;2022-09-16T17:28:23;15.82;;;8.63;;
70150;SDS011;57517;43.562;19.540;2022-09-16T17:30:49;10.18;;;5.50;;
70150;SDS011;57517;43.562;19.540;2022-09-16T17:33:15;11.40;;;7.13;;
70150;SDS011;57517;43.562;19.540;2022-09-16T17:35:41;10.13;;;7.03;;
70150;SDS011;57517;43.562;19.540;2022-09-16T17:38:07;17.15;;;7.65;;
70150;SDS011;57517;43.562;19.540;2022-09-16T17:40:34;13.98;;;7.60;;
70150;SDS011;57517;43.562;19.540;2022-09-16T17:43:00;12.57;;;8.65;;
70150;SDS011;57517;43.562;19.540;2022-09-16T17:45:27;18.27;;;12.98;;
70150;SDS011;57517;43.562;19.540;2022-09-16T17:47:53;15.90;;;9.38;;
70150;SDS011;57517;43.562;19.540;2022-09-16T17:50:21;9.45;;;5.93;;
70150;SDS011;57517;43.562;19.540;2022-09-16T17:52:47;13.45;;;9.55;;
70150;SDS011;57517;43.562;19.540;2022-09-16T17:55:13;12.50;;;6.50;;
70150;SDS011;57517;43.562;19.540;2022-09-16T17:57:38;13.57;;;6.22;;
70150;SDS011;57517;43.562;19.540;2022-09-16T18:00:04;13.88;;;7.22;;
70150;SDS011;57517;43.562;19.540;2022-09-16T18:02:32;14.75;;;7.75;;
70150;SDS011;57517;43.562;19.540;2022-09-16T18:04:59;13.18;;;7.15;;
70150;SDS011;57517;43.562;19.540;2022-09-16T18:07:25;10.68;;;7.10;;
70150;SDS011;57517;43.562;19.540;2022-09-16T18:09:51;14.07;;;8.65;;
70150;SDS011;57517;43.562;19.540;2022-09-16T18:12:16;13.13;;;7.40;;
70150;SDS011;57517;43.562;19.540;2022-09-16T18:14:42;10.48;;;5.35;;
70150;SDS011;57517;43.562;19.540;2022-09-16T18:17:08;11.55;;;7.07;;
70150;SDS011;57517;43.562;19.540;2022-09-16T18:19:34;12.70;;;6.00;;
70150;SDS011;57517;43.562;19.540;2022-09-16T18:22:00;8.52;;;5.80;;
70150;SDS011;57517;43.562;19.540;2022-09-16T18:24:26;10.55;;;6.32;;
70150;SDS011;57517;43.562;19.540;2022-09-16T18:26:52;13.27;;;7.07;;
70150;SDS011;57517;43.562;19.540;2022-09-16T18:29:18;11.60;;;7.72;;
70150;SDS011;57517;43.562;19.540;2022-09-16T18:31:44;13.18;;;5.80;;
70150;SDS011;57517;43.562;19.540;2022-09-16T18:34:12;8.60;;;5.13;;
70150;SDS011;57517;43.562;19.540;2022-09-16T18:36:39;10.88;;;5.70;;
70150;SDS011;57517;43.562;19.540;2022-09-16T18:39:06;12.05;;;6.43;;
70150;SDS011;57517;43.562;19.540;2022-09-16T18:41:36;12.30;;;6.10;;
70150;SDS011;57517;43.562;19.540;2022-09-16T18:44:05;17.77;;;11.20;;
70150;SDS011;57517;43.562;19.540;2022-09-16T18:46:35;15.68;;;6.97;;
70150;SDS011;57517;43.562;19.540;2022-09-16T18:49:02;13.80;;;6.80;;
70150;SDS011;57517;43.562;19.540;2022-09-16T18:51:33;14.02;;;6.60;;
70150;SDS011;57517;43.562;19.540;2022-09-16T18:54:06;13.73;;;6.50;;
70150;SDS011;57517;43.562;19.540;2022-09-16T18:56:36;13.13;;;7.10;;
70150;SDS011;57517;43.562;19.540;2022-09-16T19:01:38;16.75;;;10.00;;
70150;SDS011;57517;43.562;19.540;2022-09-16T19:04:05;15.45;;;10.10;;
70150;SDS011;57517;43.562;19.540;2022-09-16T19:06:41;13.82;;;6.97;;
70150;SDS011;57517;43.562;19.540;2022-09-16T19:09:13;10.68;;;6.55;;
70150;SDS011;57517;43.562;19.540;2022-09-16T19:11:41;12.45;;;6.57;;
70150;SDS011;57517;43.562;19.540;2022-09-16T19:14:08;11.38;;;6.20;;
70150;SDS011;57517;43.562;19.540;2022-09-16T19:16:39;14.23;;;6.95;;
70150;SDS011;57517;43.562;19.540;2022-09-16T19:19:07;14.20;;;9.40;;
70150;SDS011;57517;43.562;19.540;2022-09-16T19:21:34;14.07;;;8.68;;
70150;SDS011;57517;43.562;19.540;2022-09-16T19:24:01;13.95;;;8.48;;
70150;SDS011;57517;43.562;19.540;2022-09-16T19:26:31;14.88;;;9.35;;
70150;SDS011;57517;43.562;19.540;2022-09-16T19:29:02;16.20;;;7.20;;
70150;SDS011;57517;43.562;19.540;2022-09-16T19:31:31;14.13;;;8.63;;
70150;SDS011;57517;43.562;19.540;2022-09-16T19:33:58;14.43;;;8.43;;
70150;SDS011;57517;43.562;19.540;2022-09-16T19:36:25;18.92;;;8.80;;
70150;SDS011;57517;43.562;19.540;2022-09-16T19:38:53;14.95;;;9.85;;
70150;SDS011;57517;43.562;19.540;2022-09-16T19:41:19;15.48;;;8.00;;
70150;SDS011;57517;43.562;19.540;2022-09-16T19:43:46;12.77;;;8.05;;
70150;SDS011;57517;43.562;19.540;2022-09-16T19:46:17;17.20;;;8.98;;
70150;SDS011;57517;43.562;19.540;2022-09-16T19:48:44;14.95;;;7.93;;
70150;SDS011;57517;43.562;19.540;2022-09-16T19:51:13;12.95;;;7.47;;
70150;SDS011;57517;43.562;19.540;2022-09-16T19:53:41;13.90;;;7.10;;
70150;SDS011;57517;43.562;19.540;2022-09-16T19:56:09;15.27;;;7.38;;
70150;SDS011;57517;43.562;19.540;2022-09-16T19:58:40;13.43;;;8.18;;
70150;SDS011;57517;43.562;19.540;2022-09-16T20:01:08;12.70;;;7.82;;
70150;SDS011;57517;43.562;19.540;2022-09-16T20:03:36;12.52;;;7.80;;
70150;SDS011;57517;43.562;19.540;2022-09-16T20:06:04;15.43;;;8.20;;
70150;SDS011;57517;43.562;19.540;2022-09-16T20:08:32;13.73;;;8.07;;
70150;SDS011;57517;43.562;19.540;2022-09-16T20:11:07;16.25;;;8.57;;
70150;SDS011;57517;43.562;19.540;2022-09-16T20:13:35;12.63;;;7.50;;
70150;SDS011;57517;43.562;19.540;2022-09-16T20:16:01;13.88;;;7.93;;
70150;SDS011;57517;43.562;19.540;2022-09-16T20:18:31;15.70;;;7.95;;
70150;SDS011;57517;43.562;19.540;2022-09-16T20:21:10;16.55;;;8.68;;
70150;SDS011;57517;43.562;19.540;2022-09-16T20:23:38;15.25;;;7.30;;
70150;SDS011;57517;43.562;19.540;2022-09-16T20:26:05;23.17;;;9.38;;
70150;SDS011;57517;43.562;19.540;2022-09-16T20:28:36;12.70;;;7.93;;
70150;SDS011;57517;43.562;19.540;2022-09-16T20:31:07;14.80;;;7.95;;
70150;SDS011;57517;43.562;19.540;2022-09-16T20:33:34;10.57;;;6.80;;
70150;SDS011;57517;43.562;19.540;2022-09-16T20:36:03;14.30;;;7.78;;
70150;SDS011;57517;43.562;19.540;2022-09-16T20:38:30;11.15;;;6.43;;
70150;SDS011;57517;43.562;19.540;2022-09-16T20:41:02;13.82;;;7.18;;
70150;SDS011;57517;43.562;19.540;2022-09-16T20:43:29;14.02;;;8.05;;
70150;SDS011;57517;43.562;19.540;2022-09-16T20:45:55;12.50;;;6.93;;
70150;SDS011;57517;43.562;19.540;2022-09-16T20:48:20;14.55;;;6.65;;
70150;SDS011;57517;43.562;19.540;2022-09-16T20:50:46;12.18;;;6.82;;
70150;SDS011;57517;43.562;19.540;2022-09-16T20:53:12;11.93;;;7.05;;
70150;SDS011;57517;43.562;19.540;2022-09-16T20:55:38;13.75;;;6.90;;
70150;SDS011;57517;43.562;19.540;2022-09-16T20:58:04;13.65;;;7.20;;
70150;SDS011;57517;43.562;19.540;2022-09-16T21:00:31;11.70;;;7.00;;
70150;SDS011;57517;43.562;19.540;2022-09-16T21:02:57;13.23;;;6.20;;
70150;SDS011;57517;43.562;19.540;2022-09-16T21:05:24;12.70;;;6.95;;
70150;SDS011;57517;43.562;19.540;2022-09-16T21:07:50;9.32;;;6.15;;
70150;SDS011;57517;43.562;19.540;2022-09-16T21:10:16;12.88;;;7.40;;
70150;SDS011;57517;43.562;19.540;2022-09-16T21:12:43;13.45;;;7.20;;
70150;SDS011;57517;43.562;19.540;2022-09-16T21:15:09;14.10;;;7.93;;
70150;SDS011;57517;43.562;19.540;2022-09-16T21:17:35;14.43;;;7.65;;
70150;SDS011;57517;43.562;19.540;2022-09-16T21:20:01;8.45;;;5.82;;
70150;SDS011;57517;43.562;19.540;2022-09-16T21:22:27;11.43;;;6.10;;
70150;SDS011;57517;43.562;19.540;2022-09-16T21:24:53;9.30;;;6.07;;
70150;SDS011;57517;43.562;19.540;2022-09-16T21:27:19;11.75;;;6.93;;
70150;SDS011;57517;43.562;19.540;2022-09-16T21:29:44;12.38;;;7.68;;
70150;SDS011;57517;43.562;19.540;2022-09-16T21:32:10;13.05;;;7.28;;
70150;SDS011;57517;43.562;19.540;2022-09-16T21:34:36;14.82;;;8.50;;
70150;SDS011;57517;43.562;19.540;2022-09-16T21:37:02;12.82;;;6.95;;
70150;SDS011;57517;43.562;19.540;2022-09-16T21:39:29;13.35;;;7.10;;
70150;SDS011;57517;43.562;19.540;2022-09-16T21:41:55;8.18;;;6.00;;
70150;SDS011;57517;43.562;19.540;2022-09-16T21:44:20;13.23;;;6.25;;
70150;SDS011;57517;43.562;19.540;2022-09-16T21:46:46;10.00;;;6.45;;
70150;SDS011;57517;43.562;19.540;2022-09-16T21:49:17;11.57;;;6.63;;